• Join FlightAware (Why Join?)
  • Login
  • US Flag 
06:04AM EDT


 

Airport Tracker/Info


-or-


 

Live Flight TrackerFlight Track Log ✈ N20EW ✈ 17-Apr-2013 ✈ KPBX - KLEX

Flight Track Log - Related Links

Times and Time Zones

All times are in EDT time to prevent confusion due to time zone crossing. See the N20EW flight status page for this flight to view local times or setup timezone preferences in your user account.

Time Position Orientation Groundspeed Altitude Reporting Facility
EDT Latitude Longitude Course Direction KTS MPH feet Rate Location/Type
09:06AM 37.5636 -82.5378 85° East 93 107 2,500  Level Indianapolis Center
09:07AM 37.5978 -82.5511 343° North 156 180 4,500 1,920 Climbing Indianapolis Center
09:08AM 37.6128 -82.6128 287° West 182 209 6,500 1,980 Climbing Indianapolis Center
09:09AM 37.6322 -82.6711 293° West 182 209 8,600 2,040 Climbing Indianapolis Center
09:10AM 37.6575 -82.7375 296° West 180 207 10,800 1,620 Climbing Indianapolis Center
09:11AM 37.6806 -82.7961 296° West 183 211 12,000 540 Climbing Indianapolis Center
09:12AM 37.7100 -82.8658 298° West 212 244 12,000  Level Indianapolis Center
09:13AM 37.7433 -82.9397 300° West 238 274 12,000  Level Indianapolis Center
09:14AM 37.7744 -83.0078 300° West 228 262 12,100  Climbing Indianapolis Center
09:15AM 37.7856 -83.0850 280° West 225 259 12,000  Descending Indianapolis Center
09:16AM 37.8025 -83.1814 283° West 237 273 12,100  Climbing Indianapolis Center
09:17AM 37.8158 -83.2636 282° West 241 277 12,100 -60 Level Indianapolis Center
09:18AM 37.8317 -83.3486 283° West 247 284 12,000  Descending Indianapolis Center
09:19AM 37.8442 -83.4314 281° West 243 280 12,100  Climbing Indianapolis Center
09:20AM 37.8567 -83.5011 283° West 211 243 12,000  Descending Indianapolis Center
09:21AM 37.8683 -83.5706 282° West 202 232 12,100 -60 Climbing Indianapolis Center
09:22AM 37.8822 -83.6600 281° West 222 255 11,900 -420 Descending Indianapolis Center
09:23AM 37.8956 -83.7333 283° West 216 249 11,300 -420 Descending Indianapolis Center
09:24AM 37.9067 -83.8053 281° West 211 243 11,100 -300 Descending Indianapolis Center
09:25AM 37.9219 -83.8828 284° West 224 258 10,700 -660 Descending Indianapolis Center
09:26AM 37.9486 -83.9625 293° West 242 278 9,800 -900 Descending Indianapolis Center
09:27AM 37.9806 -84.0439 296° West 254 292 8,900 -1,140 Descending Indianapolis Center
09:28AM 38.0289 -84.1297 306° West 256 295 7,500 -1,260 Descending Indianapolis Center
09:29AM 38.0550 -84.2128 292° West 261 300 6,400 -1,020 Descending Indianapolis Center
09:30AM 38.0494 -84.3061 266° West 269 310 5,500 -1,020 Descending Indianapolis Center
09:31AM 38.0475 -84.3969 268° West 264 304 4,300 -1,140 Descending Indianapolis Center
09:32AM 38.0547 -84.4869 276° West 262 302 3,200 -1,020 Descending Indianapolis Center
09:33AM 38.0633 -84.5608 278° West 239 275 2,200 -780 Descending Indianapolis Center
09:34AM 38.0567 -84.6119 261° West 201 231 1,700 -540 Descending Indianapolis Center
09:36AM 38.0333 -84.6000 180° South  Level FlightAware Approximate
09:43AM 38.0368 -84.6086 180° South  Level Estimated